createdAt,value
2018-11-06T00:01:20.530Z,62.10
2018-11-06T00:03:53.175Z,57.03
2018-11-06T00:06:22.617Z,66.67
2018-11-06T00:08:51.184Z,63.13
2018-11-06T00:11:19.912Z,58.97
2018-11-06T00:13:49.274Z,68.43
2018-11-06T00:16:17.741Z,60.23
2018-11-06T00:18:46.245Z,60.53
2018-11-06T00:21:15.690Z,61.37
2018-11-06T00:23:44.202Z,62.33
2018-11-06T00:26:12.693Z,60.77
2018-11-06T00:28:41.152Z,57.53
2018-11-06T00:31:09.728Z,68.97
2018-11-06T00:33:38.406Z,59.33
2018-11-06T00:36:07.110Z,55.27
2018-11-06T00:38:36.430Z,63.50
2018-11-06T00:41:05.041Z,59.40
2018-11-06T00:43:33.788Z,45.07
2018-11-06T00:46:02.285Z,53.40
2018-11-06T00:48:30.989Z,61.23
2018-11-06T00:50:59.479Z,56.67
2018-11-06T00:53:28.166Z,54.87
2018-11-06T00:55:56.606Z,54.37
2018-11-06T00:58:25.328Z,50.70
2018-11-06T01:00:53.844Z,52.10
2018-11-06T01:03:26.551Z,52.20
2018-11-06T01:05:55.009Z,67.43
2018-11-06T01:08:23.760Z,57.50
2018-11-06T01:10:52.437Z,58.87
2018-11-06T01:13:20.896Z,54.07
2018-11-06T01:15:49.624Z,56.37
2018-11-06T01:18:18.321Z,61.70
2018-11-06T01:20:46.726Z,59.40
2018-11-06T01:23:16.509Z,60.40
2018-11-06T01:25:45.193Z,52.43
2018-11-06T01:28:14.035Z,59.37
2018-11-06T01:30:42.822Z,53.23
2018-11-06T01:33:11.508Z,52.80
2018-11-06T01:35:40.016Z,57.37
2018-11-06T01:38:08.646Z,57.07
2018-11-06T01:40:37.313Z,46.60
2018-11-06T01:43:05.836Z,60.00
2018-11-06T01:45:34.404Z,54.23
2018-11-06T01:48:03.013Z,53.90
2018-11-06T01:50:31.799Z,59.40
2018-11-06T01:53:00.281Z,62.27
2018-11-06T01:55:29.255Z,64.50
2018-11-06T01:57:58.986Z,61.40
2018-11-06T02:00:27.720Z,66.93
2018-11-06T02:02:56.160Z,63.30
2018-11-06T02:05:25.136Z,60.60
2018-11-06T02:07:53.824Z,53.97
2018-11-06T02:10:22.279Z,54.23
2018-11-06T02:12:50.740Z,62.30
2018-11-06T02:15:19.324Z,62.50
2018-11-06T02:17:47.814Z,60.50
2018-11-06T02:20:16.953Z,53.93
2018-11-06T02:22:46.007Z,61.10
2018-11-06T02:25:16.062Z,63.00
2018-11-06T02:27:44.616Z,53.30
2018-11-06T02:30:15.307Z,54.57
2018-11-06T02:32:44.740Z,50.67
2018-11-06T02:35:13.260Z,60.80
2018-11-06T02:37:41.802Z,53.47
2018-11-06T02:40:11.924Z,58.00
2018-11-06T02:42:40.716Z,46.73
2018-11-06T02:45:10.126Z,53.13
2018-11-06T02:47:38.822Z,59.27
2018-11-06T02:50:08.838Z,52.47
2018-11-06T02:52:37.603Z,57.40
2018-11-06T02:55:06.887Z,50.40
2018-11-06T02:57:35.790Z,53.87
2018-11-06T03:00:04.969Z,54.33
2018-11-06T03:02:33.501Z,53.63
2018-11-06T03:05:02.308Z,59.23
2018-11-06T03:07:30.997Z,64.20
2018-11-06T03:09:59.471Z,51.70
2018-11-06T03:12:28.570Z,66.90
2018-11-06T03:14:57.066Z,57.53
2018-11-06T03:17:25.953Z,54.43
2018-11-06T03:19:54.419Z,57.50
2018-11-06T03:22:22.916Z,48.77
2018-11-06T03:24:51.555Z,56.43
2018-11-06T03:27:20.377Z,59.57
2018-11-06T03:29:49.092Z,52.83
2018-11-06T03:32:18.781Z,55.30
2018-11-06T03:34:47.304Z,54.77
2018-11-06T03:37:16.519Z,50.87
2018-11-06T03:39:44.934Z,58.70
2018-11-06T03:42:14.346Z,49.10
2018-11-06T03:44:43.295Z,59.80
2018-11-06T03:47:11.804Z,53.43
2018-11-06T03:49:40.264Z,50.90
2018-11-06T03:52:08.809Z,51.80
2018-11-06T03:54:37.231Z,53.10
2018-11-06T03:57:06.049Z,56.27
2018-11-06T03:59:34.557Z,58.80
2018-11-06T04:02:02.958Z,65.63
2018-11-06T04:04:31.388Z,61.70
2018-11-06T04:07:00.049Z,69.37
2018-11-06T04:09:28.484Z,62.63
2018-11-06T04:11:56.945Z,77.72
2018-11-06T04:14:25.959Z,61.27
2018-11-06T04:16:54.722Z,65.40
2018-11-06T04:19:23.189Z,62.37
2018-11-06T04:21:51.680Z,71.10
2018-11-06T04:24:20.262Z,66.43
2018-11-06T04:26:48.777Z,57.97
2018-11-06T04:29:17.642Z,59.63
2018-11-06T04:31:46.029Z,59.87
2018-11-06T04:34:14.706Z,58.07
2018-11-06T04:36:43.434Z,62.40
2018-11-06T04:39:12.194Z,58.03
2018-11-06T04:41:41.194Z,64.33
2018-11-06T04:44:10.899Z,51.07
2018-11-06T04:46:39.430Z,62.57
2018-11-06T04:49:08.182Z,53.80
2018-11-06T04:51:36.893Z,53.17
2018-11-06T04:54:05.408Z,49.23
2018-11-06T04:56:33.910Z,56.17
2018-11-06T04:59:02.731Z,58.27
2018-11-06T05:01:31.483Z,54.57
2018-11-06T05:04:00.427Z,50.73
2018-11-06T05:06:28.833Z,53.27
2018-11-06T05:08:57.636Z,55.20
2018-11-06T05:11:26.373Z,60.43
2018-11-06T05:13:54.944Z,57.30
2018-11-06T05:16:23.426Z,56.47
2018-11-06T05:18:51.904Z,58.70
2018-11-06T05:21:22.101Z,60.60
2018-11-06T05:23:51.711Z,54.67
2018-11-06T05:26:20.693Z,57.83
2018-11-06T05:28:49.201Z,54.50
2018-11-06T05:31:17.801Z,51.83
2018-11-06T05:33:46.311Z,59.63
2018-11-06T05:36:14.791Z,54.60
2018-11-06T05:38:43.677Z,59.13
2018-11-06T05:41:12.040Z,56.33
2018-11-06T05:43:40.511Z,61.30
2018-11-06T05:46:09.009Z,56.50
2018-11-06T05:48:37.709Z,51.57
2018-11-06T05:51:06.616Z,60.57
2018-11-06T05:53:35.110Z,57.90
2018-11-06T05:56:03.967Z,59.87
2018-11-06T05:58:32.435Z,59.10
2018-11-06T06:01:01.147Z,61.53
2018-11-06T06:03:29.566Z,53.53
2018-11-06T06:05:58.256Z,54.07
2018-11-06T06:08:26.662Z,56.50
2018-11-06T06:10:55.424Z,51.97
2018-11-06T06:13:23.848Z,54.63
2018-11-06T06:15:52.251Z,59.07
2018-11-06T06:18:20.954Z,54.57
2018-11-06T06:20:49.750Z,62.87
2018-11-06T06:23:18.900Z,56.03
2018-11-06T06:25:47.345Z,51.97
2018-11-06T06:28:15.870Z,56.43
2018-11-06T06:30:44.334Z,52.90
2018-11-06T06:33:13.041Z,59.13
2018-11-06T06:35:41.546Z,58.03
2018-11-06T06:38:10.225Z,61.23
2018-11-06T06:40:38.738Z,58.57
2018-11-06T06:43:08.673Z,52.33
2018-11-06T06:45:37.514Z,53.73
2018-11-06T06:48:06.250Z,56.00
2018-11-06T06:50:34.715Z,49.90
2018-11-06T06:53:03.248Z,62.87
2018-11-06T06:55:31.841Z,58.37
2018-11-06T06:58:00.713Z,51.37
2018-11-06T07:00:29.302Z,51.53
2018-11-06T07:02:58.192Z,49.33
2018-11-06T07:05:26.675Z,64.63
2018-11-06T07:07:55.286Z,48.13
2018-11-06T07:10:24.071Z,53.57
2018-11-06T07:12:52.765Z,46.40
2018-11-06T07:15:22.800Z,48.77
2018-11-06T07:17:52.280Z,51.27
2018-11-06T07:20:24.378Z,50.90
2018-11-06T07:22:53.597Z,52.43
2018-11-06T07:25:22.357Z,46.97
2018-11-06T07:27:50.821Z,44.43
2018-11-06T07:30:21.827Z,46.43
2018-11-06T07:32:50.440Z,49.40
2018-11-06T07:35:20.903Z,56.07
2018-11-06T07:37:49.479Z,49.00
2018-11-06T07:40:19.299Z,43.43
2018-11-06T07:42:48.123Z,49.97
2018-11-06T07:45:18.040Z,46.80
2018-11-06T07:47:46.823Z,46.60
2018-11-06T07:50:16.650Z,50.37
2018-11-06T07:52:45.507Z,52.23
2018-11-06T07:55:17.517Z,47.60
2018-11-06T07:57:46.253Z,44.37
2018-11-06T08:00:20.431Z,39.50
2018-11-06T08:02:49.612Z,47.07
2018-11-06T08:05:19.932Z,35.20
2018-11-06T08:07:49.595Z,36.83
2018-11-06T08:10:18.160Z,42.77
2018-11-06T08:12:48.279Z,41.50
2018-11-06T08:15:17.203Z,38.43
2018-11-06T08:17:46.180Z,39.27
2018-11-06T08:20:14.885Z,43.97
2018-11-06T08:22:44.429Z,41.37
2018-11-06T08:25:14.292Z,36.47
2018-11-06T08:27:43.601Z,31.77
2018-11-06T08:30:13.178Z,34.37
2018-11-06T08:32:42.330Z,33.47
2018-11-06T08:35:12.721Z,34.10
2018-11-06T08:37:41.502Z,34.13
2018-11-06T08:40:11.880Z,35.03
2018-11-06T08:42:40.342Z,32.63
2018-11-06T08:45:10.412Z,35.97
2018-11-06T08:47:39.424Z,37.63
2018-11-06T08:50:09.269Z,32.90
2018-11-06T08:52:37.884Z,34.10
2018-11-06T08:55:07.965Z,32.77
2018-11-06T08:57:38.265Z,33.93
2018-11-06T09:00:09.267Z,32.23
2018-11-06T09:02:39.012Z,30.83
2018-11-06T09:05:09.511Z,28.93
2018-11-06T09:07:38.181Z,28.33
2018-11-06T09:10:07.726Z,25.83
2018-11-06T09:12:36.920Z,27.83
2018-11-06T09:15:06.302Z,31.37
2018-11-06T09:17:34.842Z,24.73
2018-11-06T09:20:03.411Z,29.07
2018-11-06T09:22:31.906Z,30.60
2018-11-06T09:25:00.694Z,23.80
2018-11-06T09:27:29.168Z,31.07
2018-11-06T09:29:58.916Z,27.43
2018-11-06T09:32:27.368Z,31.53
2018-11-06T09:34:55.899Z,33.13
2018-11-06T09:37:24.437Z,30.67
2018-11-06T09:39:53.101Z,28.13
2018-11-06T09:42:21.769Z,25.97
2018-11-06T09:44:50.263Z,27.53
2018-11-06T09:47:18.779Z,30.10
2018-11-06T09:49:47.249Z,31.87
2018-11-06T09:52:16.779Z,28.40
2018-11-06T09:54:45.554Z,27.63
2018-11-06T09:57:14.331Z,31.90
2018-11-06T09:59:42.823Z,31.07
2018-11-06T10:02:11.313Z,27.07
2018-11-06T10:04:40.006Z,27.33
2018-11-06T10:07:08.942Z,28.80
2018-11-06T10:09:37.216Z,26.30
2018-11-06T10:12:05.760Z,25.10
2018-11-06T10:14:34.235Z,30.13
2018-11-06T10:17:02.775Z,26.47
2018-11-06T10:19:31.869Z,27.30
2018-11-06T10:22:00.427Z,26.60
2018-11-06T10:24:28.910Z,27.40
2018-11-06T10:26:57.757Z,27.13
2018-11-06T10:29:26.474Z,31.07
2018-11-06T10:31:55.296Z,23.90
2018-11-06T10:34:24.034Z,25.30
2018-11-06T10:36:52.794Z,24.30
2018-11-06T10:39:23.468Z,26.63
2018-11-06T10:41:52.449Z,23.43
2018-11-06T10:44:21.002Z,22.57
2018-11-06T10:46:49.508Z,26.10
2018-11-06T10:49:17.984Z,33.63
2018-11-06T10:51:46.594Z,20.93
2018-11-06T10:54:15.049Z,25.47
2018-11-06T10:56:43.550Z,22.75
2018-11-06T10:59:12.082Z,19.93
2018-11-06T11:01:46.017Z,21.67
2018-11-06T11:04:17.153Z,23.63
2018-11-06T11:06:46.633Z,19.40
2018-11-06T11:09:15.234Z,20.97
2018-11-06T11:11:43.744Z,20.87
2018-11-06T11:14:12.463Z,19.40
2018-11-06T11:16:40.886Z,20.03
2018-11-06T11:19:09.440Z,19.30
2018-11-06T11:21:38.338Z,16.17
2018-11-06T11:24:06.808Z,15.60
2018-11-06T11:26:35.253Z,18.83
2018-11-06T11:29:03.740Z,18.33
2018-11-06T11:31:33.082Z,16.83
2018-11-06T11:34:01.583Z,16.47
2018-11-06T11:36:30.189Z,16.27
2018-11-06T11:38:58.782Z,15.23
2018-11-06T11:41:27.297Z,16.33
2018-11-06T11:43:56.096Z,18.83
2018-11-06T11:46:24.917Z,16.80
2018-11-06T11:48:53.951Z,14.07
2018-11-06T11:51:23.265Z,14.60
2018-11-06T11:53:51.753Z,15.70
2018-11-06T11:56:20.851Z,15.07
2018-11-06T11:58:49.361Z,21.00
2018-11-06T12:01:18.122Z,15.23
2018-11-06T12:03:46.589Z,15.70
2018-11-06T12:06:15.385Z,19.17
2018-11-06T12:08:44.144Z,14.73
2018-11-06T12:11:12.903Z,15.60
2018-11-06T12:13:41.613Z,14.40
2018-11-06T12:16:10.634Z,18.07
2018-11-06T12:18:39.424Z,14.83
2018-11-06T12:21:09.202Z,18.63
2018-11-06T12:23:37.774Z,16.33
2018-11-06T12:26:06.782Z,15.60
2018-11-06T12:28:35.717Z,12.37
2018-11-06T12:31:04.210Z,15.97
2018-11-06T12:33:32.624Z,14.80
2018-11-06T12:36:01.043Z,17.60
2018-11-06T12:38:29.698Z,19.73
2018-11-06T12:40:58.416Z,14.27
2018-11-06T12:43:26.993Z,12.70
2018-11-06T12:45:55.688Z,11.70
2018-11-06T12:48:24.684Z,12.43
2018-11-06T12:50:53.294Z,12.30
2018-11-06T12:53:21.789Z,14.60
2018-11-06T12:55:50.277Z,13.73
2018-11-06T12:58:19.467Z,17.87
2018-11-06T13:00:47.911Z,10.27
2018-11-06T13:03:16.414Z,11.47
2018-11-06T13:05:44.980Z,13.23
2018-11-06T13:08:13.534Z,12.67
2018-11-06T13:10:42.084Z,9.07
2018-11-06T13:13:10.685Z,10.13
2018-11-06T13:15:39.252Z,9.33
2018-11-06T13:18:07.911Z,11.20
2018-11-06T13:20:36.620Z,9.03
2018-11-06T13:23:05.199Z,9.03
2018-11-06T13:25:33.743Z,11.37
2018-11-06T13:28:02.168Z,16.17
2018-11-06T13:30:30.678Z,8.40
2018-11-06T13:32:59.533Z,11.57
2018-11-06T13:35:27.958Z,11.30
2018-11-06T13:37:56.456Z,11.20
2018-11-06T13:40:25.425Z,12.87
2018-11-06T13:42:54.070Z,14.97
2018-11-06T13:45:24.796Z,13.60
2018-11-06T13:47:53.307Z,13.20
2018-11-06T13:50:21.852Z,12.03
2018-11-06T13:52:50.430Z,13.60
2018-11-06T13:55:18.980Z,14.07
2018-11-06T13:57:48.168Z,18.60
2018-11-06T14:00:18.830Z,12.60
2018-11-06T14:02:47.293Z,16.00
2018-11-06T14:05:16.044Z,15.90
2018-11-06T14:07:44.701Z,14.33
2018-11-06T14:10:13.360Z,19.00
2018-11-06T14:12:43.601Z,13.67
2018-11-06T14:15:13.148Z,13.33
2018-11-06T14:17:41.856Z,12.17
2018-11-06T14:20:13.664Z,13.83
2018-11-06T14:22:42.443Z,13.17
2018-11-06T14:25:10.954Z,11.50
2018-11-06T14:27:39.476Z,14.30
2018-11-06T14:30:10.440Z,14.93
2018-11-06T14:32:39.856Z,14.57
2018-11-06T14:35:09.754Z,11.40
2018-11-06T14:37:38.440Z,11.10
2018-11-06T14:40:08.423Z,15.70
2018-11-06T14:42:37.575Z,16.07
2018-11-06T14:45:07.977Z,11.53
2018-11-06T14:47:37.492Z,11.40
2018-11-06T14:50:07.094Z,16.70
2018-11-06T14:52:36.169Z,9.80
2018-11-06T14:55:07.509Z,13.30
2018-11-06T14:57:36.192Z,10.00
2018-11-06T15:00:05.840Z,13.73
2018-11-06T15:02:34.423Z,11.00
2018-11-06T15:05:03.045Z,13.97
2018-11-06T15:07:31.634Z,14.97
2018-11-06T15:10:00.192Z,13.10
2018-11-06T15:12:28.912Z,8.47
2018-11-06T15:14:58.772Z,10.60
2018-11-06T15:17:28.361Z,11.37
2018-11-06T15:19:56.873Z,11.70
2018-11-06T15:22:25.440Z,11.20
2018-11-06T15:24:54.250Z,13.40
2018-11-06T15:27:22.730Z,12.47
2018-11-06T15:29:51.313Z,9.30
2018-11-06T15:32:19.988Z,10.57
2018-11-06T15:34:48.307Z,13.50
2018-11-06T15:37:16.833Z,13.63
2018-11-06T15:39:45.375Z,9.97
2018-11-06T15:42:14.181Z,12.17
2018-11-06T15:44:42.612Z,12.73
2018-11-06T15:47:11.212Z,14.13
2018-11-06T15:49:39.940Z,9.70
2018-11-06T15:52:08.729Z,11.43
2018-11-06T15:54:37.348Z,10.97
2018-11-06T15:57:06.814Z,10.27
2018-11-06T15:59:35.418Z,9.27
2018-11-06T16:02:04.202Z,12.83
2018-11-06T16:04:32.682Z,13.90
2018-11-06T16:07:01.353Z,10.57
2018-11-06T16:09:29.854Z,8.77
2018-11-06T16:11:58.621Z,10.03
2018-11-06T16:14:27.989Z,11.35
2018-11-06T16:16:57.493Z,10.27
2018-11-06T16:19:30.453Z,12.37
2018-11-06T16:21:59.953Z,10.47
2018-11-06T16:24:30.805Z,9.30
2018-11-06T16:29:37.715Z,10.00
2018-11-06T16:32:09.492Z,13.17
2018-11-06T16:34:38.596Z,9.70
2018-11-06T16:37:10.715Z,14.07
2018-11-06T16:39:39.430Z,11.27
2018-11-06T16:42:08.428Z,23.13
2018-11-06T16:44:36.985Z,10.60
2018-11-06T16:47:06.244Z,10.40
2018-11-06T16:49:35.315Z,10.47
2018-11-06T16:52:04.247Z,9.50
2018-11-06T16:54:32.841Z,11.40
2018-11-06T16:57:01.600Z,8.67
2018-11-06T16:59:30.170Z,8.93
2018-11-06T17:01:59.050Z,11.17
2018-11-06T17:04:27.702Z,12.67
2018-11-06T17:06:56.535Z,12.93
2018-11-06T17:09:25.893Z,11.33
2018-11-06T17:11:55.639Z,15.03
2018-11-06T17:14:35.646Z,16.50
2018-11-06T17:17:08.626Z,14.20
2018-11-06T17:19:38.193Z,16.03
2018-11-06T17:22:07.683Z,14.50
2018-11-06T17:24:36.661Z,16.67
2018-11-06T17:27:10.058Z,15.17
2018-11-06T17:29:39.567Z,16.13
2018-11-06T17:32:09.957Z,18.03
2018-11-06T17:34:39.429Z,16.47
2018-11-06T17:37:15.281Z,20.23
2018-11-06T17:39:45.234Z,14.53
2018-11-06T17:42:14.019Z,18.10
2018-11-06T17:44:42.683Z,17.37
2018-11-06T17:47:13.907Z,18.53
2018-11-06T17:49:43.090Z,14.67
2018-11-06T17:52:11.928Z,18.30
2018-11-06T17:54:40.629Z,18.47
2018-11-06T17:57:10.571Z,20.97
2018-11-06T17:59:39.973Z,23.23
2018-11-06T18:02:08.830Z,16.83
2018-11-06T18:04:37.584Z,18.27
2018-11-06T18:07:06.310Z,22.00
2018-11-06T18:09:35.641Z,18.80
2018-11-06T18:12:05.171Z,19.50
2018-11-06T18:14:34.137Z,21.20
2018-11-06T18:17:06.860Z,20.80
2018-11-06T18:19:35.663Z,21.47
2018-11-06T18:22:04.765Z,21.40
2018-11-06T18:24:33.536Z,21.90
2018-11-06T18:27:02.296Z,22.80
2018-11-06T18:29:31.441Z,19.03
2018-11-06T18:32:03.207Z,19.83
2018-11-06T18:34:31.949Z,26.10
2018-11-06T18:37:00.622Z,22.20
2018-11-06T18:39:29.869Z,21.93
2018-11-06T18:41:58.641Z,22.07
2018-11-06T18:44:27.403Z,24.13
2018-11-06T18:46:56.820Z,21.50
2018-11-06T18:49:25.949Z,23.07
2018-11-06T18:52:08.329Z,17.77
2018-11-06T18:54:37.080Z,21.07
2018-11-06T18:57:06.047Z,24.20
2018-11-06T18:59:35.883Z,19.93
2018-11-06T19:02:05.278Z,23.20
2018-11-06T19:04:34.160Z,19.90
2018-11-06T19:07:03.035Z,19.93
2018-11-06T19:09:31.787Z,23.73
2018-11-06T19:12:01.253Z,21.13
2018-11-06T19:14:30.532Z,21.53
2018-11-06T19:19:22.715Z,22.40
2018-11-06T19:21:51.701Z,25.83
2018-11-06T19:24:20.442Z,24.80
2018-11-06T19:26:49.026Z,21.40
2018-11-06T19:29:17.673Z,20.13
2018-11-06T19:31:46.334Z,24.40
2018-11-06T19:34:14.914Z,23.03
2018-11-06T19:36:43.677Z,22.37
2018-11-06T19:39:13.356Z,27.13
2018-11-06T19:41:42.242Z,22.50
2018-11-06T19:44:12.477Z,22.23
2018-11-06T19:46:43.718Z,19.97
2018-11-06T19:49:12.599Z,27.87
2018-11-06T19:51:41.252Z,25.33
2018-11-06T19:54:09.923Z,21.57
2018-11-06T19:56:38.612Z,22.77
2018-11-06T19:59:07.212Z,19.37
2018-11-06T20:01:35.826Z,28.33
2018-11-06T20:04:04.849Z,21.57
2018-11-06T20:06:33.401Z,20.93
2018-11-06T20:09:02.082Z,21.80
2018-11-06T20:11:33.061Z,20.03
2018-11-06T20:14:01.699Z,24.77
2018-11-06T20:16:30.679Z,19.00
2018-11-06T20:18:59.644Z,20.93
2018-11-06T20:21:28.698Z,21.53
2018-11-06T20:23:57.405Z,20.20
2018-11-06T20:26:26.012Z,20.53
2018-11-06T20:28:54.600Z,21.43
2018-11-06T20:31:23.183Z,17.53
2018-11-06T20:33:51.793Z,20.97
2018-11-06T20:36:20.529Z,21.67
2018-11-06T20:38:49.097Z,24.60
2018-11-06T20:41:17.739Z,18.10
2018-11-06T20:43:46.509Z,20.40
2018-11-06T20:46:15.141Z,21.57
2018-11-06T20:48:43.796Z,19.80
2018-11-06T20:51:12.551Z,23.00
2018-11-06T20:53:41.332Z,19.70
2018-11-06T20:56:10.943Z,19.10
2018-11-06T20:58:39.623Z,17.80
2018-11-06T21:01:09.095Z,21.67
2018-11-06T21:03:38.803Z,15.63
2018-11-06T21:06:07.694Z,23.50
2018-11-06T21:08:36.630Z,16.53
2018-11-06T21:11:05.540Z,19.67
2018-11-06T21:13:34.811Z,16.87
2018-11-06T21:16:03.787Z,18.40
2018-11-06T21:18:32.633Z,20.10
2018-11-06T21:21:01.277Z,23.23
2018-11-06T21:23:31.680Z,18.70
2018-11-06T21:26:01.252Z,20.20
2018-11-06T21:28:29.895Z,18.50
2018-11-06T21:30:59.868Z,17.43
2018-11-06T21:33:29.215Z,19.37
2018-11-06T21:35:57.918Z,16.93
2018-11-06T21:38:26.460Z,15.83
2018-11-06T21:40:55.529Z,16.13
2018-11-06T21:43:24.275Z,17.90
2018-11-06T21:45:53.634Z,19.07
2018-11-06T21:48:22.254Z,18.27
2018-11-06T21:50:51.423Z,15.57
2018-11-06T21:53:20.121Z,16.23
2018-11-06T21:55:48.618Z,17.23
2018-11-06T21:58:17.384Z,15.90
2018-11-06T22:00:46.029Z,16.67
2018-11-06T22:03:14.652Z,14.30
2018-11-06T22:05:43.099Z,14.27
2018-11-06T22:08:14.348Z,16.27
2018-11-06T22:10:43.404Z,13.73
2018-11-06T22:13:12.114Z,14.33
2018-11-06T22:15:40.670Z,13.67
2018-11-06T22:18:09.205Z,15.90
2018-11-06T22:20:38.037Z,17.30
2018-11-06T22:23:07.339Z,12.70
2018-11-06T22:25:35.872Z,16.70
2018-11-06T22:28:04.885Z,12.73
2018-11-06T22:30:33.657Z,17.13
2018-11-06T22:33:02.249Z,14.80
2018-11-06T22:35:31.987Z,13.87
2018-11-06T22:38:01.160Z,13.72
2018-11-06T22:40:29.751Z,14.63
2018-11-06T22:42:58.444Z,14.63
2018-11-06T22:45:27.000Z,15.87
2018-11-06T22:47:56.176Z,13.80
2018-11-06T22:50:24.709Z,13.20
2018-11-06T22:52:53.271Z,11.73
2018-11-06T22:55:21.874Z,13.10
2018-11-06T22:57:50.348Z,15.63
2018-11-06T23:00:23.695Z,12.70
2018-11-06T23:02:53.195Z,11.53
2018-11-06T23:05:21.848Z,11.33
2018-11-06T23:07:55.936Z,14.57
2018-11-06T23:10:24.625Z,15.20
2018-11-06T23:12:53.192Z,7.67
2018-11-06T23:17:46.966Z,14.60
2018-11-06T23:20:15.764Z,13.53
2018-11-06T23:22:44.782Z,9.90
2018-11-06T23:25:13.433Z,11.33
2018-11-06T23:27:42.172Z,11.43
2018-11-06T23:30:12.907Z,16.97
2018-11-06T23:32:41.772Z,9.50
2018-11-06T23:35:10.345Z,9.50
2018-11-06T23:37:40.018Z,9.70
2018-11-06T23:40:09.308Z,11.57
2018-11-06T23:42:37.995Z,10.43
2018-11-06T23:45:07.511Z,10.77
2018-11-06T23:47:36.157Z,10.83
2018-11-06T23:50:04.896Z,9.50
2018-11-06T23:52:33.725Z,9.80
2018-11-06T23:55:02.501Z,11.10
2018-11-06T23:57:31.986Z,8.90
